sensor_id;sensor_type;location;lat;lon;timestamp;pressure;altitude;pressure_sealevel;temperature;humidity
7075;BME280;3578;51.568;6.932;2023-04-02T00:02:28;50145.16;;;-144.14;98.91
7075;BME280;3578;51.568;6.932;2023-04-02T00:05:31;50111.13;;;-144.14;99.52
7075;BME280;3578;51.568;6.932;2023-04-02T00:08:20;50155.16;;;-144.14;99.37
7075;BME280;3578;51.568;6.932;2023-04-02T00:10:49;50165.19;;;-144.14;99.26
7075;BME280;3578;51.568;6.932;2023-04-02T00:13:32;50193.22;;;-144.14;98.77
7075;BME280;3578;51.568;6.932;2023-04-02T00:16:04;50209.22;;;-144.14;98.06
7075;BME280;3578;51.568;6.932;2023-04-02T00:18:33;50257.28;;;-144.14;98.08
7075;BME280;3578;51.568;6.932;2023-04-02T00:21:09;50249.28;;;-144.14;97.89
7075;BME280;3578;51.568;6.932;2023-04-02T00:23:40;50247.28;;;-144.14;98.56
7075;BME280;3578;51.568;6.932;2023-04-02T00:26:28;50277.31;;;-144.14;97.90
7075;BME280;3578;51.568;6.932;2023-04-02T00:28:55;50335.38;;;-144.14;97.11
7075;BME280;3578;51.568;6.932;2023-04-02T00:31:24;50335.38;;;-144.14;97.35
7075;BME280;3578;51.568;6.932;2023-04-02T00:33:52;50357.41;;;-144.14;97.18
7075;BME280;3578;51.568;6.932;2023-04-02T00:36:20;50377.41;;;-144.14;96.84
7075;BME280;3578;51.568;6.932;2023-04-02T00:38:48;50343.38;;;-144.14;97.59
7075;BME280;3578;51.568;6.932;2023-04-02T00:41:19;50391.44;;;-144.14;96.95
7075;BME280;3578;51.568;6.932;2023-04-02T00:43:48;50343.38;;;-144.14;96.98
7075;BME280;3578;51.568;6.932;2023-04-02T00:46:19;50371.41;;;-144.14;97.18
7075;BME280;3578;51.568;6.932;2023-04-02T00:48:55;50409.47;;;-144.14;96.97
7075;BME280;3578;51.568;6.932;2023-04-02T00:51:28;50307.34;;;-144.14;97.86
7075;BME280;3578;51.568;6.932;2023-04-02T00:54:01;50297.31;;;-144.14;98.70
7075;BME280;3578;51.568;6.932;2023-04-02T00:56:33;50265.28;;;-144.14;98.42
7075;BME280;3578;51.568;6.932;2023-04-02T00:59:03;50405.47;;;-144.14;96.84
7075;BME280;3578;51.568;6.932;2023-04-02T01:01:35;50429.47;;;-144.14;96.38
7075;BME280;3578;51.568;6.932;2023-04-02T01:04:27;50381.44;;;-144.14;97.91
7075;BME280;3578;51.568;6.932;2023-04-02T01:06:56;50289.31;;;-144.14;98.28
7075;BME280;3578;51.568;6.932;2023-04-02T01:09:40;50309.34;;;-144.14;98.37
7075;BME280;3578;51.568;6.932;2023-04-02T01:12:33;50365.41;;;-144.14;97.62
7075;BME280;3578;51.568;6.932;2023-04-02T01:15:11;50339.38;;;-144.14;97.84
7075;BME280;3578;51.568;6.932;2023-04-02T01:18:08;50393.44;;;-144.14;97.45
7075;BME280;3578;51.568;6.932;2023-04-02T01:21:15;50377.41;;;-144.14;96.75
7075;BME280;3578;51.568;6.932;2023-04-02T01:23:57;50501.56;;;-144.14;95.75
7075;BME280;3578;51.568;6.932;2023-04-02T01:26:47;50509.59;;;-144.14;95.42
7075;BME280;3578;51.568;6.932;2023-04-02T01:29:19;50535.63;;;-144.14;94.88
7075;BME280;3578;51.568;6.932;2023-04-02T01:31:48;50625.72;;;-144.14;93.96
7075;BME280;3578;51.568;6.932;2023-04-02T01:34:19;50633.75;;;-144.14;94.35
7075;BME280;3578;51.568;6.932;2023-04-02T01:37:00;50605.69;;;-144.14;94.79
7075;BME280;3578;51.568;6.932;2023-04-02T01:39:46;50611.72;;;-144.14;94.84
7075;BME280;3578;51.568;6.932;2023-04-02T01:42:20;50627.72;;;-144.14;94.37
7075;BME280;3578;51.568;6.932;2023-04-02T01:44:53;50625.72;;;-144.14;94.35
7075;BME280;3578;51.568;6.932;2023-04-02T01:47:26;50687.81;;;-144.14;93.85
7075;BME280;3578;51.568;6.932;2023-04-02T01:49:57;50663.78;;;-144.14;94.23
7075;BME280;3578;51.568;6.932;2023-04-02T01:52:35;50669.78;;;-144.14;94.41
7075;BME280;3578;51.568;6.932;2023-04-02T01:55:07;50661.78;;;-144.14;95.05
7075;BME280;3578;51.568;6.932;2023-04-02T01:57:34;50605.69;;;-144.14;95.39
7075;BME280;3578;51.568;6.932;2023-04-02T02:00:05;50553.63;;;-144.14;96.04
7075;BME280;3578;51.568;6.932;2023-04-02T02:02:37;50581.66;;;-144.14;96.33
7075;BME280;3578;51.568;6.932;2023-04-02T02:05:05;50537.63;;;-144.14;96.57
7075;BME280;3578;51.568;6.932;2023-04-02T02:07:38;50567.66;;;-144.14;96.04
7075;BME280;3578;51.568;6.932;2023-04-02T02:10:07;50573.66;;;-144.14;95.86
7075;BME280;3578;51.568;6.932;2023-04-02T02:12:37;50591.69;;;-144.14;95.05
7075;BME280;3578;51.568;6.932;2023-04-02T02:15:14;50691.81;;;-144.14;94.12
7075;BME280;3578;51.568;6.932;2023-04-02T02:17:42;50641.75;;;-144.14;94.11
7075;BME280;3578;51.568;6.932;2023-04-02T02:20:10;50681.81;;;-144.14;94.00
7075;BME280;3578;51.568;6.932;2023-04-02T02:22:42;50719.84;;;-144.14;93.91
7075;BME280;3578;51.568;6.932;2023-04-02T02:25:13;50681.81;;;-144.14;94.33
7075;BME280;3578;51.568;6.932;2023-04-02T02:27:51;50675.78;;;-144.14;94.18
7075;BME280;3578;51.568;6.932;2023-04-02T02:30:26;50713.84;;;-144.14;93.84
7075;BME280;3578;51.568;6.932;2023-04-02T02:33:01;50671.78;;;-144.14;93.98
7075;BME280;3578;51.568;6.932;2023-04-02T02:35:35;50671.78;;;-144.14;94.58
7075;BME280;3578;51.568;6.932;2023-04-02T02:38:27;50713.84;;;-144.14;93.47
7075;BME280;3578;51.568;6.932;2023-04-02T02:41:00;50747.88;;;-144.14;93.32
7075;BME280;3578;51.568;6.932;2023-04-02T02:43:28;50721.84;;;-144.14;93.36
7075;BME280;3578;51.568;6.932;2023-04-02T02:45:57;50753.88;;;-144.14;92.70
7075;BME280;3578;51.568;6.932;2023-04-02T02:48:33;50737.88;;;-144.14;93.74
7075;BME280;3578;51.568;6.932;2023-04-02T02:51:04;50709.84;;;-144.14;94.04
7075;BME280;3578;51.568;6.932;2023-04-02T02:53:45;50723.84;;;-144.14;93.79
7075;BME280;3578;51.568;6.932;2023-04-02T02:56:15;50697.81;;;-144.14;93.87
7075;BME280;3578;51.568;6.932;2023-04-02T02:58:42;50701.81;;;-144.14;93.69
7075;BME280;3578;51.568;6.932;2023-04-02T03:01:11;50759.91;;;-144.14;92.62
7075;BME280;3578;51.568;6.932;2023-04-02T03:03:38;50809.97;;;-144.14;92.19
7075;BME280;3578;51.568;6.932;2023-04-02T03:06:08;50834.00;;;-144.14;91.95
7075;BME280;3578;51.568;6.932;2023-04-02T03:08:41;50844.00;;;-144.14;91.78
7075;BME280;3578;51.568;6.932;2023-04-02T03:11:13;50836.00;;;-144.14;92.08
7075;BME280;3578;51.568;6.932;2023-04-02T03:13:45;50836.00;;;-144.14;91.75
7075;BME280;3578;51.568;6.932;2023-04-02T03:16:21;50799.94;;;-144.14;92.13
7075;BME280;3578;51.568;6.932;2023-04-02T03:18:54;50789.94;;;-144.14;92.87
7075;BME280;3578;51.568;6.932;2023-04-02T03:21:29;50830.00;;;-144.14;92.13
7075;BME280;3578;51.568;6.932;2023-04-02T03:24:00;50811.97;;;-144.14;92.49
7075;BME280;3578;51.568;6.932;2023-04-02T03:26:32;50771.91;;;-144.14;93.25
7075;BME280;3578;51.568;6.932;2023-04-02T03:29:16;50797.94;;;-144.14;92.59
7075;BME280;3578;51.568;6.932;2023-04-02T03:31:49;50777.91;;;-144.14;93.91
7075;BME280;3578;51.568;6.932;2023-04-02T03:34:24;50745.88;;;-144.14;94.14
7075;BME280;3578;51.568;6.932;2023-04-02T03:36:56;50755.91;;;-144.14;94.37
7075;BME280;3578;51.568;6.932;2023-04-02T03:39:31;50745.88;;;-144.14;93.87
7075;BME280;3578;51.568;6.932;2023-04-02T03:42:04;50737.88;;;-144.14;94.14
7075;BME280;3578;51.568;6.932;2023-04-02T03:44:44;50777.91;;;-144.14;94.06
7075;BME280;3578;51.568;6.932;2023-04-02T03:47:17;50761.91;;;-144.14;93.80
7075;BME280;3578;51.568;6.932;2023-04-02T03:49:51;50739.88;;;-144.14;94.17
7075;BME280;3578;51.568;6.932;2023-04-02T03:52:24;50711.84;;;-144.14;94.38
7075;BME280;3578;51.568;6.932;2023-04-02T03:54:52;50757.91;;;-144.14;94.33
7075;BME280;3578;51.568;6.932;2023-04-02T03:57:28;50777.91;;;-144.14;93.44
7075;BME280;3578;51.568;6.932;2023-04-02T04:00:01;50785.94;;;-144.14;93.49
7075;BME280;3578;51.568;6.932;2023-04-02T04:02:40;50789.94;;;-144.14;93.76
7075;BME280;3578;51.568;6.932;2023-04-02T04:05:22;50787.94;;;-144.14;93.55
7075;BME280;3578;51.568;6.932;2023-04-02T04:07:52;50757.91;;;-144.14;93.88
7075;BME280;3578;51.568;6.932;2023-04-02T04:10:24;50797.94;;;-144.14;92.78
7075;BME280;3578;51.568;6.932;2023-04-02T04:12:54;50823.97;;;-144.14;92.84
7075;BME280;3578;51.568;6.932;2023-04-02T04:15:27;50795.94;;;-144.14;93.55
7075;BME280;3578;51.568;6.932;2023-04-02T04:18:02;50813.97;;;-144.14;92.84
7075;BME280;3578;51.568;6.932;2023-04-02T04:20:35;50817.97;;;-144.14;92.79
7075;BME280;3578;51.568;6.932;2023-04-02T04:23:16;50850.03;;;-144.14;92.90
7075;BME280;3578;51.568;6.932;2023-04-02T04:25:45;50844.00;;;-144.14;92.30
7075;BME280;3578;51.568;6.932;2023-04-02T04:28:20;50821.97;;;-144.14;91.74
7075;BME280;3578;51.568;6.932;2023-04-02T04:30:55;50884.06;;;-144.14;91.87
7075;BME280;3578;51.568;6.932;2023-04-02T04:33:29;50870.03;;;-144.14;91.74
7075;BME280;3578;51.568;6.932;2023-04-02T04:36:13;50890.06;;;-144.14;91.40
7075;BME280;3578;51.568;6.932;2023-04-02T04:38:48;50862.03;;;-144.14;91.80
7075;BME280;3578;51.568;6.932;2023-04-02T04:41:22;50920.13;;;-144.14;91.87
7075;BME280;3578;51.568;6.932;2023-04-02T04:43:54;50900.09;;;-144.14;91.36
7075;BME280;3578;51.568;6.932;2023-04-02T04:46:27;50910.09;;;-144.14;91.40
7075;BME280;3578;51.568;6.932;2023-04-02T04:49:03;50910.09;;;-144.14;91.25
7075;BME280;3578;51.568;6.932;2023-04-02T04:51:39;50898.09;;;-144.14;91.93
7075;BME280;3578;51.568;6.932;2023-04-02T04:54:11;50850.03;;;-144.14;92.51
7075;BME280;3578;51.568;6.932;2023-04-02T04:56:39;50874.06;;;-144.14;92.43
7075;BME280;3578;51.568;6.932;2023-04-02T04:59:17;50852.03;;;-144.14;92.37
7075;BME280;3578;51.568;6.932;2023-04-02T05:01:52;50892.06;;;-144.14;92.61
7075;BME280;3578;51.568;6.932;2023-04-02T05:04:25;50834.00;;;-144.14;92.84
7075;BME280;3578;51.568;6.932;2023-04-02T05:06:58;50813.97;;;-144.14;93.20
7075;BME280;3578;51.568;6.932;2023-04-02T05:09:33;50787.94;;;-144.14;94.64
7075;BME280;3578;51.568;6.932;2023-04-02T05:12:10;50793.94;;;-144.14;93.81
7075;BME280;3578;51.568;6.932;2023-04-02T05:14:47;50813.97;;;-144.14;93.90
7075;BME280;3578;51.568;6.932;2023-04-02T05:17:19;50823.97;;;-144.14;93.77
7075;BME280;3578;51.568;6.932;2023-04-02T05:19:54;50819.97;;;-144.14;93.80
7075;BME280;3578;51.568;6.932;2023-04-02T05:22:30;50813.97;;;-144.14;93.48
7075;BME280;3578;51.568;6.932;2023-04-02T05:25:18;50864.03;;;-144.14;92.30
7075;BME280;3578;51.568;6.932;2023-04-02T05:27:50;50862.03;;;-144.14;92.55
7075;BME280;3578;51.568;6.932;2023-04-02T05:30:44;50846.00;;;-144.14;92.92
7075;BME280;3578;51.568;6.932;2023-04-02T05:33:21;50894.06;;;-144.14;91.50
7075;BME280;3578;51.568;6.932;2023-04-02T05:35:56;50926.13;;;-144.14;91.24
7075;BME280;3578;51.568;6.932;2023-04-02T05:38:27;50926.13;;;-144.14;91.05
7075;BME280;3578;51.568;6.932;2023-04-02T05:41:01;50998.22;;;-144.14;89.88
7075;BME280;3578;51.568;6.932;2023-04-02T05:43:32;50980.19;;;-144.14;89.60
7075;BME280;3578;51.568;6.932;2023-04-02T05:46:05;51012.25;;;-144.14;89.95
7075;BME280;3578;51.568;6.932;2023-04-02T05:48:37;50982.19;;;-144.14;89.79
7075;BME280;3578;51.568;6.932;2023-04-02T05:51:11;50986.19;;;-144.14;90.06
7075;BME280;3578;51.568;6.932;2023-04-02T05:53:47;50966.19;;;-144.14;90.10
7075;BME280;3578;51.568;6.932;2023-04-02T05:56:18;50994.22;;;-144.14;89.59
7075;BME280;3578;51.568;6.932;2023-04-02T05:58:48;51002.22;;;-144.14;89.77
7075;BME280;3578;51.568;6.932;2023-04-02T06:01:28;51042.28;;;-144.14;89.71
7075;BME280;3578;51.568;6.932;2023-04-02T06:04:04;51030.25;;;-144.14;88.57
7075;BME280;3578;51.568;6.932;2023-04-02T06:06:45;51030.25;;;-144.14;88.99
7075;BME280;3578;51.568;6.932;2023-04-02T06:09:18;51056.31;;;-144.14;88.90
7075;BME280;3578;51.568;6.932;2023-04-02T06:11:53;51004.22;;;-144.14;89.71
7075;BME280;3578;51.568;6.932;2023-04-02T06:14:21;51028.25;;;-144.14;89.02
7075;BME280;3578;51.568;6.932;2023-04-02T06:16:48;51078.34;;;-144.14;87.50
7075;BME280;3578;51.568;6.932;2023-04-02T06:19:21;51080.34;;;-144.14;87.49
7075;BME280;3578;51.568;6.932;2023-04-02T06:21:52;51148.44;;;-144.14;87.70
7075;BME280;3578;51.568;6.932;2023-04-02T06:24:26;51140.41;;;-144.14;87.28
7075;BME280;3578;51.568;6.932;2023-04-02T06:26:57;51092.34;;;-144.14;87.89
7075;BME280;3578;51.568;6.932;2023-04-02T06:29:29;51118.38;;;-144.14;87.33
7075;BME280;3578;51.568;6.932;2023-04-02T06:32:00;51082.34;;;-144.14;88.36
7075;BME280;3578;51.568;6.932;2023-04-02T06:34:29;51076.31;;;-144.14;88.52
7075;BME280;3578;51.568;6.932;2023-04-02T06:37:01;51098.34;;;-144.14;87.12
7075;BME280;3578;51.568;6.932;2023-04-02T06:39:30;51086.34;;;-144.14;87.63
7075;BME280;3578;51.568;6.932;2023-04-02T06:42:00;51094.34;;;-144.14;87.63
7075;BME280;3578;51.568;6.932;2023-04-02T06:44:33;51118.38;;;-144.14;88.31
7075;BME280;3578;51.568;6.932;2023-04-02T06:47:06;51126.41;;;-144.14;87.67
7075;BME280;3578;51.568;6.932;2023-04-02T06:49:41;51152.44;;;-144.14;86.44
7075;BME280;3578;51.568;6.932;2023-04-02T06:52:17;51170.47;;;-144.14;86.01
7075;BME280;3578;51.568;6.932;2023-04-02T06:54:47;51150.44;;;-144.14;87.03
7075;BME280;3578;51.568;6.932;2023-04-02T06:57:14;51130.41;;;-144.14;86.77
7075;BME280;3578;51.568;6.932;2023-04-02T06:59:41;51188.50;;;-144.14;85.81
7075;BME280;3578;51.568;6.932;2023-04-02T07:02:23;51174.47;;;-144.14;86.38
7075;BME280;3578;51.568;6.932;2023-04-02T07:04:52;51206.50;;;-144.14;86.40
7075;BME280;3578;51.568;6.932;2023-04-02T07:07:22;51166.47;;;-144.14;87.05
7075;BME280;3578;51.568;6.932;2023-04-02T07:09:49;51138.41;;;-144.14;87.04
7075;BME280;3578;51.568;6.932;2023-04-02T07:12:21;51172.47;;;-144.14;87.06
7075;BME280;3578;51.568;6.932;2023-04-02T07:14:48;51220.53;;;-144.14;85.06
7075;BME280;3578;51.568;6.932;2023-04-02T07:17:16;51250.56;;;-144.14;85.01
7075;BME280;3578;51.568;6.932;2023-04-02T07:19:43;51240.56;;;-144.14;84.91
7075;BME280;3578;51.568;6.932;2023-04-02T07:22:14;51188.50;;;-144.14;85.42
7075;BME280;3578;51.568;6.932;2023-04-02T07:24:44;51184.47;;;-144.14;86.15
7075;BME280;3578;51.568;6.932;2023-04-02T07:27:13;51230.56;;;-144.14;84.66
7075;BME280;3578;51.568;6.932;2023-04-02T07:29:40;51286.63;;;-144.14;84.00
7075;BME280;3578;51.568;6.932;2023-04-02T07:32:09;51294.63;;;-144.14;84.16
7075;BME280;3578;51.568;6.932;2023-04-02T07:34:36;51302.66;;;-144.14;84.08
7075;BME280;3578;51.568;6.932;2023-04-02T07:37:04;51246.56;;;-144.14;84.50
7075;BME280;3578;51.568;6.932;2023-04-02T07:39:31;51306.66;;;-144.14;85.29
7075;BME280;3578;51.568;6.932;2023-04-02T07:42:01;51348.72;;;-144.14;83.16
7075;BME280;3578;51.568;6.932;2023-04-02T07:44:28;51366.75;;;-144.14;82.48
7075;BME280;3578;51.568;6.932;2023-04-02T07:46:55;51370.75;;;-144.14;83.60
7075;BME280;3578;51.568;6.932;2023-04-02T07:49:22;51376.75;;;-144.14;82.91
7075;BME280;3578;51.568;6.932;2023-04-02T07:51:50;51390.78;;;-144.14;82.80
7075;BME280;3578;51.568;6.932;2023-04-02T07:54:18;51392.78;;;-144.14;83.53
7075;BME280;3578;51.568;6.932;2023-04-02T07:56:45;51426.84;;;-144.14;82.85
7075;BME280;3578;51.568;6.932;2023-04-02T07:59:13;51432.84;;;-144.14;82.19
7075;BME280;3578;51.568;6.932;2023-04-02T08:01:40;51456.88;;;-144.14;82.43
7075;BME280;3578;51.568;6.932;2023-04-02T08:04:16;51446.88;;;-144.14;81.66
7075;BME280;3578;51.568;6.932;2023-04-02T08:06:44;51527.00;;;-144.14;79.97
7075;BME280;3578;51.568;6.932;2023-04-02T08:09:11;51527.00;;;-144.14;81.78
7075;BME280;3578;51.568;6.932;2023-04-02T08:11:38;51535.00;;;-144.14;81.19
7075;BME280;3578;51.568;6.932;2023-04-02T08:14:07;51565.06;;;-144.14;79.35
7075;BME280;3578;51.568;6.932;2023-04-02T08:16:46;51585.09;;;-144.14;79.83
7075;BME280;3578;51.568;6.932;2023-04-02T08:19:14;51617.13;;;-144.14;80.04
7075;BME280;3578;51.568;6.932;2023-04-02T08:21:42;51609.13;;;-144.14;80.37
7075;BME280;3578;51.568;6.932;2023-04-02T08:24:09;51595.09;;;-144.14;80.63
7075;BME280;3578;51.568;6.932;2023-04-02T08:26:36;51609.13;;;-144.14;80.00
7075;BME280;3578;51.568;6.932;2023-04-02T08:29:03;51661.19;;;-144.14;78.67
7075;BME280;3578;51.568;6.932;2023-04-02T08:31:30;51667.22;;;-144.14;79.82
7075;BME280;3578;51.568;6.932;2023-04-02T08:33:58;51599.09;;;-144.14;81.35
7075;BME280;3578;51.568;6.932;2023-04-02T08:36:28;51645.16;;;-144.14;79.87
7075;BME280;3578;51.568;6.932;2023-04-02T08:38:56;51639.16;;;-144.14;80.76
7075;BME280;3578;51.568;6.932;2023-04-02T08:41:25;51697.25;;;-144.14;78.95
7075;BME280;3578;51.568;6.932;2023-04-02T08:44:22;51727.31;;;-144.14;76.30
7075;BME280;3578;51.568;6.932;2023-04-02T08:46:58;51815.44;;;-144.14;76.29
7075;BME280;3578;51.568;6.932;2023-04-02T08:49:34;51815.44;;;-144.14;76.63
7075;BME280;3578;51.568;6.932;2023-04-02T08:52:03;51887.56;;;-144.14;76.25
7075;BME280;3578;51.568;6.932;2023-04-02T08:54:33;51887.56;;;-144.14;75.74
7075;BME280;3578;51.568;6.932;2023-04-02T08:57:06;51959.69;;;-144.14;76.14
7075;BME280;3578;51.568;6.932;2023-04-02T08:59:39;51999.75;;;-144.14;73.60
7075;BME280;3578;51.568;6.932;2023-04-02T09:02:30;52051.84;;;-144.14;72.71
7075;BME280;3578;51.568;6.932;2023-04-02T09:05:05;52055.84;;;-144.14;74.36
7075;BME280;3578;51.568;6.932;2023-04-02T09:07:33;52069.88;;;-144.14;73.85
7075;BME280;3578;51.568;6.932;2023-04-02T09:10:01;52093.91;;;-144.14;72.94
7075;BME280;3578;51.568;6.932;2023-04-02T09:12:30;52131.97;;;-144.14;68.70
7075;BME280;3578;51.568;6.932;2023-04-02T09:15:14;52156.00;;;-144.14;69.00
7075;BME280;3578;51.568;6.932;2023-04-02T09:17:45;52160.03;;;-144.14;71.66
7075;BME280;3578;51.568;6.932;2023-04-02T09:20:18;52166.03;;;-144.14;70.37
7075;BME280;3578;51.568;6.932;2023-04-02T09:22:47;52210.09;;;-144.14;67.83
7075;BME280;3578;51.568;6.932;2023-04-02T09:25:18;52220.13;;;-144.14;67.84
7075;BME280;3578;51.568;6.932;2023-04-02T09:27:47;52216.13;;;-144.14;67.71
7075;BME280;3578;51.568;6.932;2023-04-02T09:30:29;52270.22;;;-144.14;67.75
7075;BME280;3578;51.568;6.932;2023-04-02T09:33:04;52262.19;;;-144.14;67.35
7075;BME280;3578;51.568;6.932;2023-04-02T09:35:35;52244.16;;;-144.14;69.94
7075;BME280;3578;51.568;6.932;2023-04-02T09:38:19;52244.16;;;-144.14;69.46
7075;BME280;3578;51.568;6.932;2023-04-02T09:40:50;52256.19;;;-144.14;69.69
7075;BME280;3578;51.568;6.932;2023-04-02T09:43:20;52302.28;;;-144.14;65.79
7075;BME280;3578;51.568;6.932;2023-04-02T09:45:58;52294.25;;;-144.14;68.39
7075;BME280;3578;51.568;6.932;2023-04-02T09:48:28;52288.25;;;-144.14;68.37
7075;BME280;3578;51.568;6.932;2023-04-02T09:51:13;52296.25;;;-144.14;69.09
7075;BME280;3578;51.568;6.932;2023-04-02T09:53:42;52346.34;;;-144.14;67.07
7075;BME280;3578;51.568;6.932;2023-04-02T09:56:19;52348.34;;;-144.14;67.40
7075;BME280;3578;51.568;6.932;2023-04-02T09:59:03;52384.41;;;-144.14;63.64
7075;BME280;3578;51.568;6.932;2023-04-02T10:01:33;52354.34;;;-144.14;65.67
7075;BME280;3578;51.568;6.932;2023-04-02T10:04:03;52388.41;;;-144.14;64.68
7075;BME280;3578;51.568;6.932;2023-04-02T10:06:33;52358.38;;;-144.14;66.23
7075;BME280;3578;51.568;6.932;2023-04-02T10:09:20;52426.50;;;-144.14;64.17
7075;BME280;3578;51.568;6.932;2023-04-02T10:11:54;52380.41;;;-144.14;66.06
7075;BME280;3578;51.568;6.932;2023-04-02T10:14:25;52438.50;;;-144.14;62.58
7075;BME280;3578;51.568;6.932;2023-04-02T10:16:57;52456.53;;;-144.14;63.62
7075;BME280;3578;51.568;6.932;2023-04-02T10:19:30;52472.56;;;-144.14;63.26
7075;BME280;3578;51.568;6.932;2023-04-02T10:22:05;52478.59;;;-144.14;63.05
7075;BME280;3578;51.568;6.932;2023-04-02T10:24:36;52462.56;;;-144.14;63.76
7075;BME280;3578;51.568;6.932;2023-04-02T10:27:16;52468.56;;;-144.14;61.09
7075;BME280;3578;51.568;6.932;2023-04-02T10:30:15;52492.59;;;-144.14;61.74
7075;BME280;3578;51.568;6.932;2023-04-02T10:32:49;52496.63;;;-144.14;61.03
7075;BME280;3578;51.568;6.932;2023-04-02T10:35:35;52450.53;;;-144.14;63.00
7075;BME280;3578;51.568;6.932;2023-04-02T10:38:25;52456.53;;;-144.14;62.64
7075;BME280;3578;51.568;6.932;2023-04-02T10:40:59;52464.56;;;-144.14;65.56
7075;BME280;3578;51.568;6.932;2023-04-02T10:44:23;52486.59;;;-144.14;64.38
7075;BME280;3578;51.568;6.932;2023-04-02T10:47:05;52480.59;;;-144.14;62.85
7075;BME280;3578;51.568;6.932;2023-04-02T10:49:41;52536.69;;;-144.14;60.92
7075;BME280;3578;51.568;6.932;2023-04-02T10:52:14;52486.59;;;-144.14;63.21
7075;BME280;3578;51.568;6.932;2023-04-02T10:54:48;52532.69;;;-144.14;60.48
7075;BME280;3578;51.568;6.932;2023-04-02T10:57:32;52496.63;;;-144.14;64.31
7075;BME280;3578;51.568;6.932;2023-04-02T11:00:12;52552.72;;;-144.14;61.18
7075;BME280;3578;51.568;6.932;2023-04-02T11:02:47;52566.75;;;-144.14;58.88
7075;BME280;3578;51.568;6.932;2023-04-02T11:05:22;52556.72;;;-144.14;60.65
7075;BME280;3578;51.568;6.932;2023-04-02T11:07:58;52536.69;;;-144.14;60.34
7075;BME280;3578;51.568;6.932;2023-04-02T11:10:31;52512.66;;;-144.14;62.82
7075;BME280;3578;51.568;6.932;2023-04-02T11:13:06;52550.72;;;-144.14;61.12
7075;BME280;3578;51.568;6.932;2023-04-02T11:15:37;52546.72;;;-144.14;62.00
7075;BME280;3578;51.568;6.932;2023-04-02T11:18:04;52602.81;;;-144.14;57.78
7075;BME280;3578;51.568;6.932;2023-04-02T11:21:00;52566.75;;;-144.14;61.92
7075;BME280;3578;51.568;6.932;2023-04-02T11:23:37;52582.78;;;-144.14;59.61
7075;BME280;3578;51.568;6.932;2023-04-02T11:26:43;52580.78;;;-144.14;62.45
7075;BME280;3578;51.568;6.932;2023-04-02T11:29:21;52604.81;;;-144.14;57.57
7075;BME280;3578;51.568;6.932;2023-04-02T11:32:11;52630.88;;;-144.14;57.75
7075;BME280;3578;51.568;6.932;2023-04-02T11:37:56;52590.78;;;-144.14;58.82
7075;BME280;3578;51.568;6.932;2023-04-02T11:40:57;52622.84;;;-144.14;56.76
7075;BME280;3578;51.568;6.932;2023-04-02T11:43:50;52600.81;;;-144.14;57.51
7075;BME280;3578;51.568;6.932;2023-04-02T11:46:43;52624.84;;;-144.14;56.36
7075;BME280;3578;51.568;6.932;2023-04-02T11:49:39;52608.81;;;-144.14;58.35
7075;BME280;3578;51.568;6.932;2023-04-02T11:52:28;52598.81;;;-144.14;57.72
7075;BME280;3578;51.568;6.932;2023-04-02T11:55:01;52640.88;;;-144.14;58.28
7075;BME280;3578;51.568;6.932;2023-04-02T11:57:54;52656.91;;;-144.14;54.97
7075;BME280;3578;51.568;6.932;2023-04-02T12:03:50;52727.03;;;-144.14;54.54
7075;BME280;3578;51.568;6.932;2023-04-02T12:06:28;52733.06;;;-144.14;54.27
7075;BME280;3578;51.568;6.932;2023-04-02T12:09:06;52757.09;;;-144.14;51.60
7075;BME280;3578;51.568;6.932;2023-04-02T12:11:39;52684.97;;;-144.14;53.01
7075;BME280;3578;51.568;6.932;2023-04-02T12:14:30;52729.03;;;-144.14;54.18
7075;BME280;3578;51.568;6.932;2023-04-02T12:16:59;52701.00;;;-144.14;51.98
7075;BME280;3578;51.568;6.932;2023-04-02T12:19:26;52697.00;;;-144.14;54.93
7075;BME280;3578;51.568;6.932;2023-04-02T12:21:57;52690.97;;;-144.14;54.90
7075;BME280;3578;51.568;6.932;2023-04-02T12:24:26;52725.03;;;-144.14;54.01
7075;BME280;3578;51.568;6.932;2023-04-02T12:27:17;52751.09;;;-144.14;52.87
7075;BME280;3578;51.568;6.932;2023-04-02T12:29:48;52692.97;;;-144.14;53.45
7075;BME280;3578;51.568;6.932;2023-04-02T12:32:24;52763.13;;;-144.14;53.71
7075;BME280;3578;51.568;6.932;2023-04-02T12:34:53;52761.09;;;-144.14;52.84
7075;BME280;3578;51.568;6.932;2023-04-02T12:37:23;52845.28;;;-144.14;50.56
7075;BME280;3578;51.568;6.932;2023-04-02T12:39:56;52853.28;;;-144.14;50.43
7075;BME280;3578;51.568;6.932;2023-04-02T12:42:27;52907.38;;;-144.14;49.56
7075;BME280;3578;51.568;6.932;2023-04-02T12:44:54;52869.31;;;-144.14;48.78
7075;BME280;3578;51.568;6.932;2023-04-02T12:47:22;52831.25;;;-144.14;49.87
7075;BME280;3578;51.568;6.932;2023-04-02T12:49:50;52887.34;;;-144.14;48.34
7075;BME280;3578;51.568;6.932;2023-04-02T12:52:19;52843.25;;;-144.14;49.64
7075;BME280;3578;51.568;6.932;2023-04-02T12:54:49;52879.34;;;-144.14;51.37
7075;BME280;3578;51.568;6.932;2023-04-02T12:57:38;52865.31;;;-144.14;49.32
7075;BME280;3578;51.568;6.932;2023-04-02T13:00:30;52859.28;;;-144.14;51.76
7075;BME280;3578;51.568;6.932;2023-04-02T13:03:18;52893.38;;;-144.14;50.11
7075;BME280;3578;51.568;6.932;2023-04-02T13:05:49;52913.41;;;-144.14;49.08
7075;BME280;3578;51.568;6.932;2023-04-02T13:08:21;52933.44;;;-144.14;48.24
7075;BME280;3578;51.568;6.932;2023-04-02T13:10:54;52933.44;;;-144.14;48.77
7075;BME280;3578;51.568;6.932;2023-04-02T13:13:26;52913.41;;;-144.14;48.83
7075;BME280;3578;51.568;6.932;2023-04-02T13:16:04;52915.41;;;-144.14;49.86
7075;BME280;3578;51.568;6.932;2023-04-02T13:18:37;52931.44;;;-144.14;49.48
7075;BME280;3578;51.568;6.932;2023-04-02T13:21:21;52959.50;;;-144.14;48.42
7075;BME280;3578;51.568;6.932;2023-04-02T13:23:50;52941.44;;;-144.14;47.82
7075;BME280;3578;51.568;6.932;2023-04-02T13:26:20;52957.50;;;-144.14;50.06
7075;BME280;3578;51.568;6.932;2023-04-02T13:28:58;52961.50;;;-144.14;47.81
7075;BME280;3578;51.568;6.932;2023-04-02T13:31:27;53021.63;;;-144.14;47.15
7075;BME280;3578;51.568;6.932;2023-04-02T13:33:55;53029.63;;;-144.14;46.81
7075;BME280;3578;51.568;6.932;2023-04-02T13:36:22;53069.72;;;-144.14;45.35
7075;BME280;3578;51.568;6.932;2023-04-02T13:38:50;53049.66;;;-144.14;46.38
7075;BME280;3578;51.568;6.932;2023-04-02T13:41:21;53057.69;;;-144.14;46.54
7075;BME280;3578;51.568;6.932;2023-04-02T13:43:50;53069.72;;;-144.14;48.44
7075;BME280;3578;51.568;6.932;2023-04-02T13:46:21;53091.75;;;-144.14;45.60